createdAt,value
2018-09-15T00:00:34.867Z,1.60
2018-09-15T00:01:40.378Z,2.00
2018-09-15T00:02:45.772Z,1.50
2018-09-15T00:03:51.236Z,1.73
2018-09-15T00:04:56.645Z,1.70
2018-09-15T00:06:02.072Z,1.87
2018-09-15T00:07:07.522Z,1.70
2018-09-15T00:08:13.034Z,1.50
2018-09-15T00:09:18.470Z,1.60
2018-09-15T00:10:23.940Z,2.00
2018-09-15T00:11:29.389Z,1.33
2018-09-15T00:12:34.811Z,3.17
2018-09-15T00:13:40.238Z,1.53
2018-09-15T00:14:45.643Z,1.60
2018-09-15T00:15:51.073Z,1.70
2018-09-15T00:16:56.906Z,1.30
2018-09-15T00:18:04.078Z,1.90
2018-09-15T00:19:09.514Z,1.80
2018-09-15T00:20:14.990Z,2.00
2018-09-15T00:21:20.477Z,1.77
2018-09-15T00:22:25.912Z,1.60
2018-09-15T00:23:31.403Z,1.77
2018-09-15T00:24:36.911Z,2.00
2018-09-15T00:25:42.978Z,2.00
2018-09-15T00:26:48.470Z,1.80
2018-09-15T00:27:53.933Z,1.70
2018-09-15T00:28:59.412Z,1.83
2018-09-15T00:30:04.923Z,1.90
2018-09-15T00:31:10.326Z,1.50
2018-09-15T00:32:15.787Z,1.80
2018-09-15T00:33:21.210Z,1.93
2018-09-15T00:34:26.605Z,2.17
2018-09-15T00:35:32.058Z,1.50
2018-09-15T00:36:37.569Z,1.67
2018-09-15T00:37:43.034Z,1.80
2018-09-15T00:38:48.442Z,1.73
2018-09-15T00:39:53.838Z,1.90
2018-09-15T00:40:59.415Z,1.50
2018-09-15T00:42:04.876Z,1.97
2018-09-15T00:43:10.320Z,1.80
2018-09-15T00:44:15.733Z,1.80
2018-09-15T00:45:21.149Z,1.80
2018-09-15T00:46:26.599Z,1.90
2018-09-15T00:47:32.097Z,2.10
2018-09-15T00:48:37.561Z,1.97
2018-09-15T00:49:42.981Z,2.20
2018-09-15T00:50:48.361Z,1.83
2018-09-15T00:51:53.853Z,1.70
2018-09-15T00:52:59.335Z,2.20
2018-09-15T00:54:04.796Z,2.20
2018-09-15T00:55:10.221Z,2.20
2018-09-15T00:56:15.738Z,2.03
2018-09-15T00:57:21.245Z,1.87
2018-09-15T00:58:26.728Z,2.00
2018-09-15T00:59:32.137Z,2.40
2018-09-15T01:00:37.629Z,2.20
2018-09-15T01:01:43.061Z,2.20
2018-09-15T01:02:48.577Z,2.13
2018-09-15T01:03:54.101Z,1.80
2018-09-15T01:04:59.513Z,2.60
2018-09-15T01:06:04.980Z,2.23
2018-09-15T01:07:10.425Z,2.60
2018-09-15T01:08:15.881Z,2.00
2018-09-15T01:09:21.420Z,2.17
2018-09-15T01:10:26.865Z,2.70
2018-09-15T01:11:32.269Z,2.07
2018-09-15T01:12:37.794Z,1.80
2018-09-15T01:13:43.177Z,2.40
2018-09-15T01:14:48.724Z,2.40
2018-09-15T01:15:54.218Z,2.77
2018-09-15T01:16:59.626Z,2.67
2018-09-15T01:18:05.062Z,1.90
2018-09-15T01:19:10.488Z,2.50
2018-09-15T01:20:15.929Z,2.23
2018-09-15T01:21:21.485Z,2.00
2018-09-15T01:22:26.929Z,2.30
2018-09-15T01:23:32.375Z,2.20
2018-09-15T01:24:37.828Z,2.60
2018-09-15T01:25:43.290Z,2.43
2018-09-15T01:26:48.708Z,2.10
2018-09-15T01:27:54.150Z,2.03
2018-09-15T01:28:59.602Z,3.03
2018-09-15T01:30:06.133Z,2.83
2018-09-15T01:31:11.598Z,2.30
2018-09-15T01:32:16.979Z,2.20
2018-09-15T01:33:22.396Z,2.40
2018-09-15T01:34:27.832Z,2.37
2018-09-15T01:35:33.260Z,2.97
2018-09-15T01:36:38.793Z,2.10
2018-09-15T01:37:44.213Z,2.67
2018-09-15T01:38:49.833Z,2.30
2018-09-15T01:39:55.281Z,2.73
2018-09-15T01:41:00.720Z,1.83
2018-09-15T01:42:06.128Z,2.10
2018-09-15T01:43:11.593Z,2.67
2018-09-15T01:44:17.252Z,2.53
2018-09-15T01:45:22.664Z,2.57
2018-09-15T01:46:28.060Z,2.77
2018-09-15T01:47:33.493Z,2.13
2018-09-15T01:48:39.028Z,2.50
2018-09-15T01:49:44.705Z,2.10
2018-09-15T01:50:50.170Z,2.77
2018-09-15T01:51:55.632Z,2.90
2018-09-15T01:53:01.028Z,3.00
2018-09-15T01:54:06.412Z,2.70
2018-09-15T01:55:11.900Z,2.73
2018-09-15T01:56:17.288Z,2.03
2018-09-15T01:57:22.720Z,2.50
2018-09-15T01:58:28.181Z,2.87
2018-09-15T01:59:33.589Z,2.60
2018-09-15T02:00:39.057Z,2.63
2018-09-15T02:01:44.481Z,2.83
2018-09-15T02:02:49.866Z,3.33
2018-09-15T02:03:55.301Z,2.50
2018-09-15T02:05:00.684Z,2.70
2018-09-15T02:06:06.272Z,2.50
2018-09-15T02:07:11.717Z,2.60
2018-09-15T02:08:17.461Z,2.73
2018-09-15T02:09:22.885Z,2.73
2018-09-15T02:10:28.344Z,2.73
2018-09-15T02:11:33.713Z,3.13
2018-09-15T02:12:39.082Z,2.37
2018-09-15T02:13:44.500Z,2.73
2018-09-15T02:14:49.892Z,2.87
2018-09-15T02:15:55.424Z,2.83
2018-09-15T02:17:00.890Z,2.50
2018-09-15T02:18:06.337Z,2.60
2018-09-15T02:19:11.824Z,2.43
2018-09-15T02:20:17.205Z,2.30
2018-09-15T02:21:22.586Z,3.57
2018-09-15T02:22:27.994Z,2.90
2018-09-15T02:23:33.388Z,2.57
2018-09-15T02:24:38.841Z,2.77
2018-09-15T02:25:44.286Z,3.00
2018-09-15T02:26:49.688Z,2.70
2018-09-15T02:27:55.082Z,3.03
2018-09-15T02:29:00.635Z,2.60
2018-09-15T02:30:06.189Z,2.63
2018-09-15T02:31:11.608Z,3.23
2018-09-15T02:32:17.011Z,2.93
2018-09-15T02:33:22.423Z,3.00
2018-09-15T02:34:27.831Z,3.23
2018-09-15T02:35:33.277Z,2.73
2018-09-15T02:36:38.842Z,2.93
2018-09-15T02:37:44.213Z,2.97
2018-09-15T02:38:49.945Z,3.23
2018-09-15T02:39:55.385Z,2.83
2018-09-15T02:41:00.876Z,2.90
2018-09-15T02:42:06.357Z,3.10
2018-09-15T02:43:11.769Z,3.07
2018-09-15T02:44:17.198Z,3.53
2018-09-15T02:45:22.658Z,3.23
2018-09-15T02:46:28.069Z,3.50
2018-09-15T02:47:33.469Z,3.33
2018-09-15T02:48:38.845Z,2.80
2018-09-15T02:49:44.325Z,3.30
2018-09-15T02:50:50.070Z,3.30
2018-09-15T02:51:55.497Z,3.47
2018-09-15T02:53:00.910Z,3.53
2018-09-15T02:54:06.440Z,3.60
2018-09-15T02:55:11.856Z,3.70
2018-09-15T02:56:17.558Z,4.33
2018-09-15T02:57:22.957Z,3.67
2018-09-15T02:58:28.442Z,3.43
2018-09-15T02:59:33.872Z,3.80
2018-09-15T03:00:39.285Z,3.40
2018-09-15T03:01:44.733Z,3.60
2018-09-15T03:02:50.158Z,3.50
2018-09-15T03:03:55.560Z,3.70
2018-09-15T03:05:01.005Z,3.53
2018-09-15T03:06:06.680Z,3.23
2018-09-15T03:07:12.133Z,3.63
2018-09-15T03:08:17.553Z,3.30
2018-09-15T03:09:23.357Z,3.80
2018-09-15T03:10:28.781Z,3.50
2018-09-15T03:11:34.209Z,3.40
2018-09-15T03:12:39.617Z,3.70
2018-09-15T03:13:45.004Z,3.13
2018-09-15T03:14:50.510Z,3.93
2018-09-15T03:15:55.941Z,3.97
2018-09-15T03:17:01.343Z,3.90
2018-09-15T03:18:06.902Z,3.20
2018-09-15T03:19:12.336Z,3.60
2018-09-15T03:20:17.824Z,3.60
2018-09-15T03:21:23.280Z,3.47
2018-09-15T03:22:28.754Z,3.17
2018-09-15T03:23:34.193Z,3.50
2018-09-15T03:24:40.293Z,3.47
2018-09-15T03:25:46.033Z,3.30
2018-09-15T03:26:51.493Z,3.57
2018-09-15T03:27:56.920Z,3.23
2018-09-15T03:29:02.313Z,2.80
2018-09-15T03:30:07.923Z,3.30
2018-09-15T03:31:13.290Z,3.93
2018-09-15T03:32:24.366Z,3.37
2018-09-15T03:33:29.761Z,3.53
2018-09-15T03:34:35.136Z,3.63
2018-09-15T03:35:40.619Z,4.07
2018-09-15T03:36:46.042Z,3.60
2018-09-15T03:37:51.448Z,3.83
2018-09-15T03:38:56.812Z,4.00
2018-09-15T03:40:02.525Z,3.77
2018-09-15T03:41:07.977Z,3.70
2018-09-15T03:42:13.418Z,3.40
2018-09-15T03:43:18.862Z,3.57
2018-09-15T03:44:24.265Z,3.47
2018-09-15T03:45:29.721Z,4.53
2018-09-15T03:46:35.129Z,4.10
2018-09-15T03:47:40.639Z,4.53
2018-09-15T03:48:46.025Z,4.27
2018-09-15T03:49:51.457Z,3.80
2018-09-15T03:50:56.900Z,4.33
2018-09-15T03:52:03.180Z,3.80
2018-09-15T03:53:08.657Z,3.90
2018-09-15T03:54:19.725Z,4.00
2018-09-15T03:55:25.183Z,3.70
2018-09-15T03:56:30.616Z,4.30
2018-09-15T03:57:36.100Z,4.37
2018-09-15T03:58:41.522Z,3.87
2018-09-15T03:59:46.979Z,4.13
2018-09-15T04:00:53.824Z,3.57
2018-09-15T04:01:59.238Z,3.87
2018-09-15T04:03:04.641Z,4.20
2018-09-15T04:04:10.121Z,4.87
2018-09-15T04:05:15.504Z,4.00
2018-09-15T04:06:20.979Z,4.70
2018-09-15T04:07:26.393Z,4.60
2018-09-15T04:08:31.785Z,4.67
2018-09-15T04:09:37.186Z,4.60
2018-09-15T04:10:42.739Z,4.80
2018-09-15T04:11:48.210Z,4.13
2018-09-15T04:12:53.609Z,4.83
2018-09-15T04:13:58.993Z,5.40
2018-09-15T04:15:04.598Z,4.57
2018-09-15T04:16:10.110Z,5.13
2018-09-15T04:17:15.599Z,5.20
2018-09-15T04:18:20.968Z,4.50
2018-09-15T04:19:26.401Z,4.90
2018-09-15T04:20:31.884Z,4.30
2018-09-15T04:21:37.403Z,5.20
2018-09-15T04:22:42.874Z,4.57
2018-09-15T04:23:48.383Z,5.80
2018-09-15T04:24:53.785Z,5.20
2018-09-15T04:25:59.165Z,5.07
2018-09-15T04:27:04.637Z,5.40
2018-09-15T04:28:10.460Z,5.53
2018-09-15T04:29:15.881Z,5.17
2018-09-15T04:30:21.286Z,5.97
2018-09-15T04:31:26.689Z,5.43
2018-09-15T04:32:32.115Z,5.10
2018-09-15T04:33:37.581Z,5.83
2018-09-15T04:34:43.088Z,5.53
2018-09-15T04:35:48.512Z,5.80
2018-09-15T04:36:53.936Z,5.97
2018-09-15T04:37:59.394Z,5.53
2018-09-15T04:39:07.521Z,5.80
2018-09-15T04:40:12.946Z,7.17
2018-09-15T04:41:18.709Z,6.50
2018-09-15T04:42:24.092Z,5.90
2018-09-15T04:43:29.477Z,6.27
2018-09-15T04:44:34.877Z,6.00
2018-09-15T04:45:40.277Z,6.70
2018-09-15T04:46:45.692Z,6.10
2018-09-15T04:47:51.181Z,5.97
2018-09-15T04:48:56.637Z,6.70
2018-09-15T04:50:02.106Z,7.33
2018-09-15T04:51:07.556Z,6.13
2018-09-15T04:52:12.995Z,6.70
2018-09-15T04:53:18.445Z,6.70
2018-09-15T04:54:23.878Z,6.80
2018-09-15T04:55:29.301Z,7.53
2018-09-15T04:56:34.754Z,7.17
2018-09-15T04:57:40.191Z,7.00
2018-09-15T04:58:45.645Z,6.77
2018-09-15T04:59:51.077Z,8.13
2018-09-15T05:00:56.536Z,7.93
2018-09-15T05:02:01.973Z,6.90
2018-09-15T05:03:07.621Z,8.23
2018-09-15T05:04:13.034Z,7.03
2018-09-15T05:05:18.432Z,7.43
2018-09-15T05:06:23.830Z,7.83
2018-09-15T05:07:29.300Z,7.57
2018-09-15T05:08:34.690Z,7.10
2018-09-15T05:09:40.121Z,7.57
2018-09-15T05:10:45.596Z,6.60
2018-09-15T05:11:51.128Z,7.93
2018-09-15T05:12:56.692Z,7.57
2018-09-15T05:14:02.102Z,7.80
2018-09-15T05:15:07.597Z,7.60
2018-09-15T05:16:13.073Z,6.60
2018-09-15T05:17:18.485Z,7.67
2018-09-15T05:18:24.032Z,7.80
2018-09-15T05:19:29.674Z,7.80
2018-09-15T05:20:36.190Z,7.33
2018-09-15T05:21:41.846Z,8.50
2018-09-15T05:22:47.272Z,7.73
2018-09-15T05:23:52.689Z,7.97
2018-09-15T05:24:58.169Z,8.40
2018-09-15T05:26:03.580Z,9.90
2018-09-15T05:27:09.028Z,8.40
2018-09-15T05:28:14.526Z,8.13
2018-09-15T05:29:20.006Z,9.27
2018-09-15T05:30:25.453Z,9.07
2018-09-15T05:31:30.922Z,8.80
2018-09-15T05:32:36.304Z,7.30
2018-09-15T05:33:42.065Z,9.70
2018-09-15T05:34:47.534Z,9.10
2018-09-15T05:35:52.941Z,8.10
2018-09-15T05:36:58.437Z,8.37
2018-09-15T05:38:03.892Z,7.43
2018-09-15T05:39:12.172Z,8.40
2018-09-15T05:40:17.649Z,8.70
2018-09-15T05:41:23.065Z,9.60
2018-09-15T05:42:28.512Z,8.67
2018-09-15T05:44:58.292Z,7.47
2018-09-15T05:46:04.022Z,8.47
2018-09-15T05:47:09.471Z,9.33
2018-09-15T05:48:15.087Z,8.13
2018-09-15T05:49:20.556Z,8.90
2018-09-15T05:50:26.057Z,8.70
2018-09-15T05:51:31.485Z,8.77
2018-09-15T05:52:36.912Z,8.37
2018-09-15T05:53:42.426Z,8.27
2018-09-15T05:54:55.746Z,9.20
2018-09-15T05:56:02.017Z,9.37
2018-09-15T05:57:07.550Z,9.20
2018-09-15T05:58:12.970Z,9.23
2018-09-15T05:59:18.479Z,8.97
2018-09-15T06:00:23.980Z,9.10
2018-09-15T06:01:29.511Z,9.37
2018-09-15T06:02:34.922Z,9.43
2018-09-15T06:03:40.309Z,7.97
2018-09-15T06:04:45.785Z,8.47
2018-09-15T06:05:51.585Z,8.90
2018-09-15T06:06:57.025Z,9.40
2018-09-15T06:08:02.469Z,8.77
2018-09-15T06:09:10.713Z,9.63
2018-09-15T06:10:16.157Z,9.07
2018-09-15T06:11:21.685Z,9.93
2018-09-15T06:12:27.105Z,9.70
2018-09-15T06:13:32.546Z,8.80
2018-09-15T06:14:38.125Z,9.90
2018-09-15T06:15:43.558Z,9.27
2018-09-15T06:16:48.972Z,9.23
2018-09-15T06:17:54.450Z,10.23
2018-09-15T06:18:59.886Z,9.20
2018-09-15T06:20:05.408Z,9.73
2018-09-15T06:21:11.025Z,10.00
2018-09-15T06:22:16.507Z,9.60
2018-09-15T06:23:21.872Z,7.90
2018-09-15T06:24:27.444Z,9.23
2018-09-15T06:25:32.853Z,8.47
2018-09-15T06:26:38.367Z,7.87
2018-09-15T06:27:43.840Z,8.80
2018-09-15T06:28:49.289Z,9.23
2018-09-15T06:29:54.706Z,9.47
2018-09-15T06:31:00.154Z,8.97
2018-09-15T06:32:05.574Z,9.50
2018-09-15T06:33:11.028Z,8.90
2018-09-15T06:34:16.417Z,9.30
2018-09-15T06:35:21.889Z,8.90
2018-09-15T06:36:27.304Z,8.97
2018-09-15T06:37:32.821Z,8.80
2018-09-15T06:38:38.337Z,8.90
2018-09-15T06:39:43.813Z,8.90
2018-09-15T06:40:49.296Z,9.70
2018-09-15T06:41:54.730Z,11.57
2018-09-15T06:43:00.244Z,10.50
2018-09-15T06:44:05.878Z,9.00
2018-09-15T06:45:11.430Z,8.97
2018-09-15T06:46:16.881Z,8.27
2018-09-15T06:47:22.297Z,9.20
2018-09-15T06:48:28.137Z,9.27
2018-09-15T06:49:33.632Z,8.57
2018-09-15T06:50:39.092Z,7.90
2018-09-15T06:51:44.529Z,8.90
2018-09-15T06:52:49.977Z,9.07
2018-09-15T06:53:55.485Z,8.80
2018-09-15T06:55:01.133Z,8.63
2018-09-15T06:56:06.554Z,8.50
2018-09-15T06:57:11.969Z,8.30
2018-09-15T06:58:17.380Z,8.67
2018-09-15T06:59:22.786Z,8.70
2018-09-15T07:00:28.307Z,8.73
2018-09-15T07:01:33.826Z,9.10
2018-09-15T07:02:39.237Z,8.70
2018-09-15T07:03:44.648Z,9.10
2018-09-15T07:04:50.193Z,8.43
2018-09-15T07:05:55.765Z,8.20
2018-09-15T07:07:01.337Z,8.80
2018-09-15T07:08:06.817Z,8.80
2018-09-15T07:09:13.546Z,8.00
2018-09-15T07:10:18.968Z,9.00
2018-09-15T07:11:26.030Z,7.90
2018-09-15T07:12:32.088Z,8.50
2018-09-15T07:13:37.497Z,7.87
2018-09-15T07:14:45.644Z,8.77
2018-09-15T07:15:59.896Z,8.47
2018-09-15T07:17:16.661Z,8.83
2018-09-15T07:18:26.360Z,7.83
2018-09-15T07:19:33.241Z,7.67
2018-09-15T07:20:39.278Z,8.70
2018-09-15T07:21:45.728Z,7.83
2018-09-15T07:22:51.220Z,8.63
2018-09-15T07:23:56.713Z,9.23
2018-09-15T07:25:02.182Z,8.13
2018-09-15T07:26:07.645Z,9.03
2018-09-15T07:27:13.049Z,8.20
2018-09-15T07:28:18.497Z,9.33
2018-09-15T07:29:23.942Z,8.73
2018-09-15T07:30:29.400Z,9.00
2018-09-15T07:31:35.092Z,8.20
2018-09-15T07:32:40.515Z,8.80
2018-09-15T07:33:45.985Z,9.00
2018-09-15T07:34:51.524Z,8.60
2018-09-15T07:35:57.332Z,9.23
2018-09-15T07:37:02.790Z,8.37
2018-09-15T07:38:08.263Z,9.10
2018-09-15T07:39:13.743Z,7.90
2018-09-15T07:40:19.146Z,8.23
2018-09-15T07:41:24.592Z,8.80
2018-09-15T07:42:30.052Z,9.70
2018-09-15T07:43:35.641Z,9.07
2018-09-15T07:44:41.124Z,8.20
2018-09-15T07:45:46.536Z,9.27
2018-09-15T07:46:52.019Z,8.90
2018-09-15T07:47:57.499Z,9.30
2018-09-15T07:49:02.926Z,8.60
2018-09-15T07:50:08.389Z,8.47
2018-09-15T07:51:13.796Z,8.23
2018-09-15T07:52:19.276Z,9.00
2018-09-15T07:53:25.127Z,8.70
2018-09-15T07:54:30.661Z,8.80
2018-09-15T07:55:36.074Z,9.10
2018-09-15T07:56:41.545Z,8.87
2018-09-15T07:57:47.278Z,9.40
2018-09-15T07:58:52.736Z,9.60
2018-09-15T07:59:58.260Z,8.87
2018-09-15T08:01:03.736Z,8.70
2018-09-15T08:02:14.450Z,8.00
2018-09-15T08:03:19.857Z,8.90
2018-09-15T08:04:25.273Z,8.10
2018-09-15T08:05:30.689Z,8.90
2018-09-15T08:06:36.229Z,9.53
2018-09-15T08:07:41.688Z,8.80
2018-09-15T08:08:47.327Z,7.90
2018-09-15T08:09:52.844Z,10.50
2018-09-15T08:10:58.442Z,8.63
2018-09-15T08:12:04.107Z,8.43
2018-09-15T08:13:09.530Z,8.50
2018-09-15T08:14:15.073Z,8.53
2018-09-15T08:15:20.526Z,9.80
2018-09-15T08:16:25.979Z,8.17
2018-09-15T08:17:31.421Z,8.20
2018-09-15T08:18:36.881Z,9.10
2018-09-15T08:19:42.280Z,8.17
2018-09-15T08:20:47.770Z,8.80
2018-09-15T08:21:53.153Z,8.33
2018-09-15T08:22:58.676Z,7.87
2018-09-15T08:24:04.118Z,8.37
2018-09-15T08:25:10.571Z,8.97
2018-09-15T08:26:16.176Z,9.07
2018-09-15T08:27:21.766Z,8.73
2018-09-15T08:28:27.142Z,8.30
2018-09-15T08:29:32.573Z,9.03
2018-09-15T08:30:38.060Z,7.87
2018-09-15T08:31:43.509Z,8.33
2018-09-15T08:32:48.999Z,8.67
2018-09-15T08:33:54.461Z,8.30
2018-09-15T08:34:59.856Z,8.10
2018-09-15T08:36:05.302Z,8.93
2018-09-15T08:37:10.722Z,8.30
2018-09-15T08:38:16.179Z,9.23
2018-09-15T08:39:21.564Z,9.07
2018-09-15T08:40:27.137Z,9.23
2018-09-15T08:41:32.656Z,8.60
2018-09-15T08:42:38.228Z,10.00
2018-09-15T08:43:43.789Z,9.10
2018-09-15T08:44:49.477Z,9.13
2018-09-15T08:45:55.230Z,9.07
2018-09-15T08:47:00.721Z,8.63
2018-09-15T08:48:06.200Z,7.87
2018-09-15T08:49:11.629Z,8.20
2018-09-15T08:50:17.064Z,8.57
2018-09-15T08:51:22.480Z,7.97
2018-09-15T08:52:27.956Z,8.93
2018-09-15T08:53:33.432Z,7.17
2018-09-15T08:54:38.851Z,7.20
2018-09-15T08:55:44.385Z,7.43
2018-09-15T08:56:49.859Z,6.40
2018-09-15T08:57:55.378Z,8.43
2018-09-15T08:59:00.973Z,7.50
2018-09-15T09:00:06.623Z,7.37
2018-09-15T09:01:12.013Z,7.43
2018-09-15T09:02:17.596Z,6.80
2018-09-15T09:03:23.013Z,7.40
2018-09-15T09:04:28.560Z,8.03
2018-09-15T09:05:33.988Z,7.40
2018-09-15T09:06:39.655Z,7.10
2018-09-15T09:07:45.134Z,6.80
2018-09-15T09:08:50.993Z,7.53
2018-09-15T09:09:56.387Z,7.53
2018-09-15T09:11:01.797Z,6.70
2018-09-15T09:12:07.576Z,7.37
2018-09-15T09:13:13.031Z,6.40
2018-09-15T09:14:18.478Z,6.53
2018-09-15T09:15:23.882Z,6.03
2018-09-15T09:16:29.303Z,6.80
2018-09-15T09:17:34.733Z,6.70
2018-09-15T09:18:40.300Z,8.57
2018-09-15T09:19:46.111Z,6.63
2018-09-15T09:20:51.706Z,7.57
2018-09-15T09:21:57.121Z,6.90
2018-09-15T09:23:02.582Z,7.43
2018-09-15T09:24:08.908Z,7.73
2018-09-15T09:25:14.856Z,7.40
2018-09-15T09:26:20.338Z,6.80
2018-09-15T09:27:25.756Z,6.50
2018-09-15T09:28:31.204Z,7.00
2018-09-15T09:29:36.673Z,6.90
2018-09-15T09:30:42.129Z,6.87
2018-09-15T09:31:47.516Z,6.47
2018-09-15T09:32:52.963Z,5.90
2018-09-15T09:33:58.445Z,6.60
2018-09-15T09:35:03.893Z,6.23
2018-09-15T09:36:09.398Z,5.70
2018-09-15T09:37:14.835Z,6.07
2018-09-15T09:38:20.579Z,5.80
2018-09-15T09:39:26.098Z,6.47
2018-09-15T09:40:31.504Z,5.20
2018-09-15T09:41:36.907Z,5.80
2018-09-15T09:42:42.441Z,5.97
2018-09-15T09:43:47.854Z,5.00
2018-09-15T09:44:53.232Z,5.90
2018-09-15T09:45:58.746Z,6.30
2018-09-15T09:47:04.269Z,5.97
2018-09-15T09:48:09.874Z,6.80
2018-09-15T09:49:15.332Z,5.47
2018-09-15T09:50:20.777Z,5.20
2018-09-15T09:51:26.250Z,5.63
2018-09-15T09:52:31.752Z,5.20
2018-09-15T09:53:37.217Z,4.53
2018-09-15T09:54:42.622Z,5.57
2018-09-15T09:55:48.130Z,5.63
2018-09-15T09:56:53.570Z,5.23
2018-09-15T09:57:58.953Z,6.00
2018-09-15T09:59:04.362Z,4.30
2018-09-15T10:00:13.584Z,4.80
2018-09-15T10:01:28.081Z,4.20
2018-09-15T10:02:33.537Z,3.37
2018-09-15T10:03:39.016Z,3.20
2018-09-15T10:04:44.473Z,3.17
2018-09-15T10:05:50.114Z,3.50
2018-09-15T10:06:55.618Z,3.03
2018-09-15T10:08:01.065Z,3.47
2018-09-15T10:09:10.301Z,3.47
2018-09-15T10:10:15.837Z,3.23
2018-09-15T10:11:21.484Z,3.40
2018-09-15T10:12:26.904Z,3.13
2018-09-15T10:13:32.319Z,2.67
2018-09-15T10:14:37.778Z,3.10
2018-09-15T10:15:43.202Z,2.40
2018-09-15T10:16:48.674Z,3.03
2018-09-15T10:17:54.156Z,2.40
2018-09-15T10:18:59.564Z,2.10
2018-09-15T10:20:05.071Z,3.00
2018-09-15T10:21:10.514Z,2.53
2018-09-15T10:22:16.254Z,2.63
2018-09-15T10:23:21.693Z,2.40
2018-09-15T10:24:27.417Z,2.10
2018-09-15T10:25:32.997Z,2.50
2018-09-15T10:26:38.449Z,3.00
2018-09-15T10:27:44.004Z,2.20
2018-09-15T10:28:49.584Z,2.20
2018-09-15T10:29:55.008Z,3.30
2018-09-15T10:31:00.430Z,2.30
2018-09-15T10:32:05.995Z,3.00
2018-09-15T10:33:11.334Z,2.60
2018-09-15T10:34:16.774Z,3.00
2018-09-15T10:35:22.396Z,2.57
2018-09-15T10:36:28.061Z,2.37
2018-09-15T10:37:33.476Z,3.23
2018-09-15T10:38:38.989Z,2.40
2018-09-15T10:39:44.392Z,2.00
2018-09-15T10:40:49.822Z,2.50
2018-09-15T10:41:55.276Z,2.30
2018-09-15T10:43:00.673Z,1.73
2018-09-15T10:44:06.113Z,1.83
2018-09-15T10:45:11.535Z,2.53
2018-09-15T10:46:16.954Z,2.03
2018-09-15T10:47:22.769Z,1.90
2018-09-15T10:48:28.225Z,2.13
2018-09-15T10:49:33.713Z,2.60
2018-09-15T10:50:39.633Z,2.20
2018-09-15T10:51:45.333Z,2.50
2018-09-15T10:52:50.954Z,2.53
2018-09-15T10:53:56.707Z,2.60
2018-09-15T10:55:02.539Z,2.27
2018-09-15T10:56:08.078Z,2.60
2018-09-15T10:57:13.874Z,2.27
2018-09-15T10:58:19.541Z,1.80
2018-09-15T10:59:25.194Z,2.10
2018-09-15T11:00:30.818Z,2.37
2018-09-15T11:01:36.366Z,1.70
2018-09-15T11:02:42.264Z,2.57
2018-09-15T11:03:47.881Z,2.40
2018-09-15T11:04:53.509Z,1.90
2018-09-15T11:05:59.238Z,1.70
2018-09-15T11:07:04.674Z,1.67
2018-09-15T11:08:10.383Z,2.33
2018-09-15T11:09:16.182Z,1.37
2018-09-15T11:10:21.882Z,2.70
2018-09-15T11:11:27.360Z,1.60
2018-09-15T11:12:33.043Z,1.73
2018-09-15T11:13:38.674Z,1.60
2018-09-15T11:14:44.206Z,2.13
2018-09-15T11:15:49.879Z,1.53
2018-09-15T11:16:55.656Z,1.53
2018-09-15T11:18:01.262Z,1.40
2018-09-15T11:19:06.865Z,1.70
2018-09-15T11:20:12.476Z,1.47
2018-09-15T11:21:18.073Z,1.73
2018-09-15T11:22:23.614Z,1.77
2018-09-15T11:23:29.132Z,1.90
2018-09-15T11:24:34.840Z,1.97
2018-09-15T11:25:40.448Z,1.63
2018-09-15T11:26:45.936Z,1.70
2018-09-15T11:27:51.604Z,1.77
2018-09-15T11:28:57.116Z,1.80
2018-09-15T11:30:02.701Z,1.63
2018-09-15T11:31:08.457Z,1.30
2018-09-15T11:32:14.057Z,1.53
2018-09-15T11:33:19.797Z,1.73
2018-09-15T11:34:25.431Z,1.50
2018-09-15T11:35:31.026Z,1.60
2018-09-15T11:36:36.491Z,1.60
2018-09-15T11:37:42.160Z,1.67
2018-09-15T11:38:47.840Z,1.63
2018-09-15T11:39:53.933Z,1.33
2018-09-15T11:40:59.718Z,1.77
2018-09-15T11:42:05.555Z,1.63
2018-09-15T11:43:11.652Z,1.57
2018-09-15T11:44:17.469Z,1.50
2018-09-15T11:45:23.013Z,1.57
2018-09-15T11:46:29.832Z,1.50
2018-09-15T11:47:35.854Z,1.13
2018-09-15T11:48:41.582Z,2.00
2018-09-15T11:49:47.527Z,2.13
2018-09-15T11:50:53.329Z,2.43
2018-09-15T11:51:59.269Z,2.70
2018-09-15T11:53:04.724Z,1.60
2018-09-15T11:54:10.344Z,1.77
2018-09-15T11:55:16.142Z,1.73
2018-09-15T11:56:21.569Z,1.67
2018-09-15T11:57:27.178Z,1.50
2018-09-15T11:58:32.849Z,1.43
2018-09-15T11:59:38.648Z,1.37
2018-09-15T12:00:49.381Z,1.60
2018-09-15T12:01:55.185Z,1.97
2018-09-15T12:03:00.840Z,2.20
2018-09-15T12:04:06.417Z,2.03
2018-09-15T12:05:12.047Z,1.50
2018-09-15T12:06:17.773Z,1.83
2018-09-15T12:07:23.670Z,1.97
2018-09-15T12:08:29.404Z,2.00
2018-09-15T12:09:35.205Z,1.97
2018-09-15T12:10:40.789Z,1.67
2018-09-15T12:11:46.554Z,1.63
2018-09-15T12:12:52.304Z,1.97
2018-09-15T12:13:57.974Z,1.70
2018-09-15T12:15:03.578Z,1.50
2018-09-15T12:16:09.785Z,1.53
2018-09-15T12:17:15.252Z,2.17
2018-09-15T12:18:20.716Z,1.90
2018-09-15T12:19:26.136Z,1.80
2018-09-15T12:20:31.633Z,4.10
2018-09-15T12:21:37.412Z,5.37
2018-09-15T12:22:42.804Z,2.10
2018-09-15T12:23:48.565Z,2.00
2018-09-15T12:24:54.226Z,8.20
2018-09-15T12:26:00.030Z,2.50
2018-09-15T12:27:05.845Z,1.83
2018-09-15T12:28:11.474Z,5.43
2018-09-15T12:29:16.892Z,6.90
2018-09-15T12:30:22.348Z,3.90
2018-09-15T12:31:27.773Z,5.50
2018-09-15T12:32:33.388Z,3.37
2018-09-15T12:33:39.150Z,4.60
2018-09-15T12:34:44.858Z,2.50
2018-09-15T12:35:50.539Z,1.70
2018-09-15T12:36:56.685Z,4.40
2018-09-15T12:38:02.083Z,1.70
2018-09-15T12:39:09.301Z,2.70
2018-09-15T12:40:14.889Z,2.37
2018-09-15T12:41:20.530Z,2.97
2018-09-15T12:42:26.277Z,2.53
2018-09-15T12:43:31.764Z,2.60
2018-09-15T12:44:37.423Z,1.97
2018-09-15T12:45:43.032Z,2.23
2018-09-15T12:46:48.713Z,2.00
2018-09-15T12:47:54.337Z,1.70
2018-09-15T12:48:59.932Z,1.40
2018-09-15T12:50:05.568Z,1.20
2018-09-15T12:51:11.113Z,1.47
2018-09-15T12:52:16.940Z,1.60
2018-09-15T12:53:22.603Z,1.07
2018-09-15T12:54:28.332Z,1.90
2018-09-15T12:55:34.073Z,1.23
2018-09-15T12:56:39.729Z,1.63
2018-09-15T12:57:45.556Z,1.77
2018-09-15T12:58:50.978Z,2.00
2018-09-15T12:59:56.446Z,1.17
2018-09-15T13:01:02.360Z,1.57
2018-09-15T13:02:08.309Z,1.53
2018-09-15T13:03:13.985Z,1.37
2018-09-15T13:04:19.518Z,1.70
2018-09-15T13:05:25.315Z,1.37
2018-09-15T13:06:30.987Z,2.13
2018-09-15T13:07:36.416Z,1.80
2018-09-15T13:08:42.678Z,1.50
2018-09-15T13:09:48.692Z,1.37
2018-09-15T13:10:54.460Z,1.70
2018-09-15T13:12:00.134Z,1.27
2018-09-15T13:13:05.969Z,1.60
2018-09-15T13:14:11.609Z,1.40
2018-09-15T13:15:17.278Z,1.57
2018-09-15T13:16:22.949Z,1.47
2018-09-15T13:17:28.617Z,1.80
2018-09-15T13:18:34.268Z,1.90
2018-09-15T13:19:39.898Z,1.50
2018-09-15T13:20:45.297Z,1.93
2018-09-15T13:21:50.936Z,1.40
2018-09-15T13:22:56.614Z,1.50
2018-09-15T13:24:02.192Z,1.57
2018-09-15T13:25:07.879Z,1.40
2018-09-15T13:26:13.493Z,1.70
2018-09-15T13:27:18.947Z,1.90
2018-09-15T13:28:24.417Z,1.43
2018-09-15T13:29:29.854Z,1.53
2018-09-15T13:30:35.270Z,1.60
2018-09-15T13:31:40.771Z,1.47
2018-09-15T13:32:46.186Z,1.30
2018-09-15T13:33:51.985Z,1.87
2018-09-15T13:34:57.524Z,1.77
2018-09-15T13:36:03.002Z,1.10
2018-09-15T13:37:08.528Z,1.80
2018-09-15T13:38:14.045Z,1.30
2018-09-15T13:39:19.635Z,1.50
2018-09-15T13:40:25.225Z,1.20
2018-09-15T13:41:30.909Z,1.20
2018-09-15T13:42:36.348Z,2.07
2018-09-15T13:43:41.828Z,1.20
2018-09-15T13:44:47.486Z,1.30
2018-09-15T13:45:52.961Z,1.30
2018-09-15T13:46:58.503Z,1.40
2018-09-15T13:48:04.084Z,1.20
2018-09-15T13:49:09.897Z,1.10
2018-09-15T13:50:15.779Z,1.20
2018-09-15T13:51:21.320Z,1.50
2018-09-15T13:52:26.757Z,1.10
2018-09-15T13:53:32.329Z,1.17
2018-09-15T13:54:38.011Z,1.10
2018-09-15T13:55:43.668Z,1.30
2018-09-15T13:56:50.327Z,1.13
2018-09-15T13:57:55.894Z,1.10
2018-09-15T13:59:01.572Z,1.00
2018-09-15T14:00:07.550Z,1.40
2018-09-15T14:01:13.340Z,1.27
2018-09-15T14:02:18.953Z,0.90
2018-09-15T14:03:27.609Z,1.20
2018-09-15T14:04:37.137Z,1.20
2018-09-15T14:05:55.514Z,1.40
2018-09-15T14:07:02.094Z,0.93
2018-09-15T14:08:07.534Z,1.33
2018-09-15T14:09:13.381Z,1.77
2018-09-15T14:10:19.389Z,1.40
2018-09-15T14:11:26.809Z,1.33
2018-09-15T14:12:32.433Z,1.33
2018-09-15T14:13:38.477Z,1.90
2018-09-15T14:14:49.322Z,1.33
2018-09-15T14:15:54.986Z,2.00
2018-09-15T14:17:00.731Z,1.77
2018-09-15T14:18:06.396Z,1.80
2018-09-15T14:19:11.871Z,1.90
2018-09-15T14:20:17.561Z,2.20
2018-09-15T14:21:22.994Z,2.23
2018-09-15T14:22:28.408Z,2.93
2018-09-15T14:23:33.892Z,5.07
2018-09-15T14:24:39.365Z,2.43
2018-09-15T14:25:44.830Z,1.90
2018-09-15T14:26:50.413Z,1.70
2018-09-15T14:27:55.862Z,1.47
2018-09-15T14:29:01.433Z,1.93
2018-09-15T14:30:11.734Z,1.33
2018-09-15T14:31:17.546Z,1.10
2018-09-15T14:32:23.231Z,0.80
2018-09-15T14:33:28.915Z,1.37
2018-09-15T14:34:34.675Z,1.07
2018-09-15T14:35:40.464Z,1.17